Main page
METAR-TAF:

METAR-TAF

Airports :

Mont-De-Marsan, France

latitude: 43-55N, longitude: 000-30W, elevation: 62 m

Current weather observation

The report was made 30 minutes ago, at 07:00 UTC
Wind 5 kt from the East
Temperature 0°C
Humidity 93%
Pressure 1013 hPa
Visibility 10 km or more
no clouds below 1500 m and no cumulonimbus

METAR: LFBM 220700Z AUTO 09005KT CAVOK M00/M01 Q1013 NOSIG

Time: 08:30 (07:30 UTC)

Forecast

The report was made 5 hours and 30 minutes ago, at 02:00 UTC
Forecast valid from 22 at 03 UTC to 23 at 03 UTC
Wind 3 kt from the Northeast
Visibility 10 km or more
no clouds below 1500 m and no cumulonimbus
Temporary
from 22 at 03 UTC to 22 at 06 UTC
Visibility: 2000 m
patches of fog

TAF: LFBM 220200Z 2203/2303 05003KT CAVOK TEMPO 2203/2206 2000 BCFG

Weather observations and forecasts of more than 4000 airports (METAR and TAF reports).

The available stations are represented by yellow and red dots on the map.

Hover mouse over dot to see the name of the station.

Then click to see weather observations and forecasts.

To change the map : click on the green buttons with a black cross to zoom in, on the green button with a dash to zoom out, or on the green arrows for adjacent maps.


METAR-TAF: